createdAt,value
2018-04-14T00:02:01.626Z,72.50
2018-04-14T00:04:29.119Z,72.50
2018-04-14T00:06:57.384Z,72.50
2018-04-14T00:09:24.880Z,72.50
2018-04-14T00:11:52.386Z,72.50
2018-04-14T00:14:19.879Z,73.20
2018-04-14T00:16:47.380Z,72.50
2018-04-14T00:19:14.922Z,72.50
2018-04-14T00:21:43.180Z,72.50
2018-04-14T00:24:11.442Z,72.50
2018-04-14T00:26:39.035Z,72.50
2018-04-14T00:29:06.591Z,72.40
2018-04-14T00:31:34.111Z,72.50
2018-04-14T00:34:01.609Z,72.50
2018-04-14T00:36:29.180Z,72.60
2018-04-14T00:38:56.753Z,72.50
2018-04-14T00:41:24.309Z,72.50
2018-04-14T00:43:51.839Z,72.50
2018-04-14T00:46:19.323Z,72.50
2018-04-14T00:48:46.850Z,72.50
2018-04-14T00:51:15.109Z,72.50
2018-04-14T00:53:47.496Z,72.50
2018-04-14T00:56:15.760Z,72.50
2018-04-14T00:58:43.365Z,72.50
2018-04-14T01:01:10.925Z,72.50
2018-04-14T01:03:38.402Z,72.60
2018-04-14T01:06:05.891Z,72.50
2018-04-14T01:08:33.474Z,72.50
2018-04-14T01:11:00.984Z,72.50
2018-04-14T01:13:28.476Z,72.60
2018-04-14T01:15:56.084Z,72.70
2018-04-14T01:18:23.581Z,72.70
2018-04-14T01:20:51.090Z,72.70
2018-04-14T01:23:18.658Z,73.00
2018-04-14T01:25:46.173Z,73.00
2018-04-14T01:28:13.673Z,73.10
2018-04-14T01:30:41.237Z,73.00
2018-04-14T01:33:08.731Z,73.00
2018-04-14T01:35:36.294Z,73.00
2018-04-14T01:38:03.864Z,73.00
2018-04-14T01:40:31.354Z,73.00
2018-04-14T01:42:58.849Z,73.10
2018-04-14T01:45:26.367Z,73.80
2018-04-14T01:47:54.732Z,73.20
2018-04-14T01:50:22.223Z,73.20
2018-04-14T01:52:50.574Z,73.20
2018-04-14T01:55:18.142Z,73.20
2018-04-14T01:57:45.713Z,73.10
2018-04-14T02:00:13.274Z,73.00
2018-04-14T02:02:40.776Z,73.00
2018-04-14T02:05:08.285Z,73.10
2018-04-14T02:07:35.779Z,73.00
2018-04-14T02:10:03.262Z,73.20
2018-04-14T02:12:31.597Z,73.20
2018-04-14T02:14:59.094Z,73.20
2018-04-14T02:17:26.646Z,73.30
2018-04-14T02:19:54.133Z,73.20
2018-04-14T02:22:22.386Z,73.20
2018-04-14T02:24:49.902Z,73.20
2018-04-14T02:27:17.400Z,73.30
2018-04-14T02:29:44.898Z,73.90
2018-04-14T02:32:12.404Z,73.20
2018-04-14T02:34:39.903Z,73.20
2018-04-14T02:37:07.414Z,73.20
2018-04-14T02:39:34.953Z,73.20
2018-04-14T02:42:02.438Z,73.20
2018-04-14T02:44:30.720Z,73.50
2018-04-14T02:46:58.964Z,73.60
2018-04-14T02:49:26.545Z,73.60
2018-04-14T02:51:54.108Z,73.80
2018-04-14T02:54:21.611Z,73.60
2018-04-14T02:56:49.129Z,73.40
2018-04-14T02:59:16.691Z,73.50
2018-04-14T03:01:44.260Z,73.20
2018-04-14T03:04:11.757Z,73.10
2018-04-14T03:06:40.103Z,73.20
2018-04-14T03:09:07.680Z,73.90
2018-04-14T03:11:35.185Z,73.40
2018-04-14T03:14:02.673Z,73.60
2018-04-14T03:16:30.528Z,73.90
2018-04-14T03:18:58.014Z,74.20
2018-04-14T03:21:25.599Z,74.30
2018-04-14T03:23:53.092Z,73.80
2018-04-14T03:26:21.452Z,73.60
2018-04-14T03:28:48.945Z,73.60
2018-04-14T03:31:17.233Z,73.50
2018-04-14T03:33:44.705Z,73.50
2018-04-14T03:36:12.229Z,73.50
2018-04-14T03:38:39.798Z,73.50
2018-04-14T03:41:07.310Z,73.40
2018-04-14T03:43:34.834Z,73.50
2018-04-14T03:46:02.334Z,73.40
2018-04-14T03:48:29.857Z,73.50
2018-04-14T03:50:57.359Z,73.30
2018-04-14T03:53:24.856Z,72.80
2018-04-14T03:55:52.443Z,71.90
2018-04-14T03:58:19.937Z,72.10
2018-04-14T04:00:48.207Z,72.00
2018-04-14T04:03:15.718Z,72.00
2018-04-14T04:05:43.228Z,71.80
2018-04-14T04:08:10.749Z,72.50
2018-04-14T04:10:38.229Z,71.70
2018-04-14T04:13:05.779Z,72.20
2018-04-14T04:15:33.384Z,71.70
2018-04-14T04:18:00.873Z,71.80
2018-04-14T04:20:41.202Z,71.80
2018-04-14T04:23:20.610Z,71.80
2018-04-14T04:25:48.100Z,71.70
2018-04-14T04:28:15.723Z,71.70
2018-04-14T04:30:43.160Z,71.80
2018-04-14T04:33:11.418Z,71.70
2018-04-14T04:35:39.682Z,71.70
2018-04-14T04:38:07.168Z,71.70
2018-04-14T04:40:34.730Z,71.70
2018-04-14T04:43:03.002Z,71.60
2018-04-14T04:45:30.581Z,71.60
2018-04-14T04:47:59.676Z,71.60
2018-04-14T04:50:27.186Z,71.50
2018-04-14T04:52:54.684Z,71.60
2018-04-14T04:55:22.265Z,71.50
2018-04-14T04:57:49.767Z,71.60
2018-04-14T05:00:18.121Z,71.40
2018-04-14T05:02:45.619Z,71.40
2018-04-14T05:05:13.102Z,71.40
2018-04-14T05:07:40.618Z,71.40
2018-04-14T05:10:08.125Z,72.00
2018-04-14T05:12:35.643Z,71.40
2018-04-14T05:15:03.204Z,71.40
2018-04-14T05:17:30.765Z,71.30
2018-04-14T05:19:58.338Z,71.30
2018-04-14T05:22:25.912Z,71.30
2018-04-14T05:24:53.413Z,71.20
2018-04-14T05:27:20.906Z,71.30
2018-04-14T05:29:48.496Z,71.20
2018-04-14T05:32:16.027Z,71.20
2018-04-14T05:34:43.670Z,71.20
2018-04-14T05:37:11.932Z,71.40
2018-04-14T05:39:40.293Z,71.30
2018-04-14T05:42:07.786Z,71.30
2018-04-14T05:44:36.037Z,71.30
2018-04-14T05:47:03.611Z,71.30
2018-04-14T05:49:31.090Z,71.20
2018-04-14T05:51:59.350Z,70.90
2018-04-14T05:54:26.866Z,70.90
2018-04-14T05:56:54.362Z,71.00
2018-04-14T05:59:21.944Z,70.70
2018-04-14T06:01:49.432Z,70.40
2018-04-14T06:04:17.703Z,70.20
2018-04-14T06:06:45.198Z,70.10
2018-04-14T06:09:12.771Z,69.90
2018-04-14T06:11:40.220Z,69.60
2018-04-14T06:14:07.748Z,69.30
2018-04-14T06:16:35.256Z,70.00
2018-04-14T06:19:02.749Z,69.10
2018-04-14T06:21:30.246Z,68.90
2018-04-14T06:23:57.749Z,68.70
2018-04-14T06:26:25.246Z,68.70
2018-04-14T06:28:52.756Z,68.50
2018-04-14T06:31:21.023Z,68.20
2018-04-14T06:33:48.599Z,68.20
2018-04-14T06:36:16.032Z,68.00
2018-04-14T06:38:43.533Z,68.00
2018-04-14T06:41:11.809Z,67.60
2018-04-14T06:43:40.079Z,67.90
2018-04-14T06:46:07.641Z,67.60
2018-04-14T06:48:35.210Z,67.50
2018-04-14T06:51:02.774Z,67.50
2018-04-14T06:53:30.343Z,67.40
2018-04-14T06:55:57.896Z,67.20
2018-04-14T06:58:25.466Z,67.20
2018-04-14T07:00:52.960Z,67.00
2018-04-14T07:03:21.313Z,66.80
2018-04-14T07:05:48.874Z,66.80
2018-04-14T07:08:17.165Z,66.60
2018-04-14T07:10:44.644Z,66.60
2018-04-14T07:13:12.907Z,66.50
2018-04-14T07:15:40.425Z,66.50
2018-04-14T07:18:07.920Z,66.50
2018-04-14T07:20:35.413Z,66.60
2018-04-14T07:23:03.832Z,66.20
2018-04-14T07:25:31.323Z,66.20
2018-04-14T07:27:58.930Z,66.00
2018-04-14T07:30:26.483Z,65.90
2018-04-14T07:32:53.968Z,65.90
2018-04-14T07:35:22.223Z,65.70
2018-04-14T07:37:49.789Z,65.70
2018-04-14T07:40:17.303Z,66.30
2018-04-14T07:42:44.805Z,65.40
2018-04-14T07:45:12.383Z,65.40
2018-04-14T07:47:39.946Z,65.50
2018-04-14T07:50:07.515Z,65.50
2018-04-14T07:52:35.034Z,65.50
2018-04-14T07:55:02.530Z,65.70
2018-04-14T07:57:30.024Z,65.60
2018-04-14T07:59:58.297Z,65.60
2018-04-14T08:02:25.796Z,65.60
2018-04-14T08:04:53.320Z,65.80
2018-04-14T08:07:20.886Z,66.00
2018-04-14T08:09:48.391Z,66.10
2018-04-14T08:12:15.872Z,66.10
2018-04-14T08:14:43.357Z,66.10
2018-04-14T08:17:10.965Z,66.20
2018-04-14T08:19:39.234Z,66.30
2018-04-14T08:22:06.723Z,66.30
2018-04-14T08:24:35.019Z,66.20
2018-04-14T08:27:02.500Z,66.20
2018-04-14T08:29:30.008Z,66.20
2018-04-14T08:31:57.566Z,66.10
2018-04-14T08:34:25.073Z,65.80
2018-04-14T08:36:52.603Z,65.70
2018-04-14T08:39:20.115Z,65.50
2018-04-14T08:41:47.631Z,65.30
2018-04-14T08:44:15.131Z,65.00
2018-04-14T08:46:42.636Z,65.20
2018-04-14T08:49:10.210Z,65.40
2018-04-14T08:51:37.790Z,65.30
2018-04-14T08:54:05.319Z,65.30
2018-04-14T08:56:32.825Z,65.40
2018-04-14T08:59:00.336Z,65.40
2018-04-14T09:01:27.849Z,65.30
2018-04-14T09:03:55.426Z,65.20
2018-04-14T09:06:22.938Z,65.10
2018-04-14T09:08:50.437Z,65.10
2018-04-14T09:11:18.019Z,65.00
2018-04-14T09:13:45.546Z,64.90
2018-04-14T09:16:13.139Z,64.80
2018-04-14T09:18:40.646Z,64.80
2018-04-14T09:21:08.139Z,64.70
2018-04-14T09:23:35.645Z,64.80
2018-04-14T09:26:03.147Z,64.80
2018-04-14T09:28:30.660Z,64.80
2018-04-14T09:30:58.175Z,64.70
2018-04-14T09:33:25.703Z,64.80
2018-04-14T09:35:53.199Z,64.60
2018-04-14T09:38:20.715Z,64.60
2018-04-14T09:40:48.256Z,64.70
2018-04-14T09:43:15.757Z,64.80
2018-04-14T09:45:43.252Z,64.80
2018-04-14T09:48:11.601Z,64.80
2018-04-14T09:50:39.139Z,64.80
2018-04-14T09:53:06.627Z,64.70
2018-04-14T09:55:34.153Z,64.70
2018-04-14T09:58:01.641Z,64.90
2018-04-14T10:00:29.167Z,65.40
2018-04-14T10:03:00.560Z,65.50
2018-04-14T10:05:27.980Z,65.80
2018-04-14T10:07:55.512Z,66.00
2018-04-14T10:10:23.068Z,66.00
2018-04-14T10:12:51.350Z,66.20
2018-04-14T10:15:18.860Z,66.30
2018-04-14T10:17:46.390Z,66.40
2018-04-14T10:20:13.882Z,66.50
2018-04-14T10:22:42.164Z,66.70
2018-04-14T10:25:09.689Z,66.70
2018-04-14T10:27:37.186Z,66.70
2018-04-14T10:30:05.446Z,66.60
2018-04-14T10:32:32.945Z,66.70
2018-04-14T10:35:00.439Z,66.60
2018-04-14T10:37:28.029Z,66.70
2018-04-14T10:39:56.176Z,66.70
2018-04-14T10:42:23.677Z,66.70
2018-04-14T10:44:51.183Z,66.70
2018-04-14T10:47:18.689Z,66.90
2018-04-14T10:49:46.274Z,67.10
2018-04-14T10:52:13.771Z,67.30
2018-04-14T10:54:41.269Z,67.70
2018-04-14T10:57:08.767Z,67.70
2018-04-14T10:59:36.281Z,67.50
2018-04-14T11:02:03.790Z,67.70
2018-04-14T11:04:31.357Z,67.70
2018-04-14T11:06:58.927Z,66.70
2018-04-14T11:09:26.462Z,65.60
2018-04-14T11:11:53.942Z,62.70
2018-04-14T11:14:21.440Z,62.70
2018-04-14T11:16:49.688Z,63.90
2018-04-14T11:19:17.191Z,63.90
2018-04-14T11:21:45.449Z,64.30
2018-04-14T11:24:12.956Z,64.30
2018-04-14T11:26:40.481Z,64.30
2018-04-14T11:29:07.985Z,64.30
2018-04-14T11:31:35.509Z,64.40
2018-04-14T11:34:03.014Z,64.30
2018-04-14T11:36:30.519Z,64.30
2018-04-14T11:38:58.022Z,64.30
2018-04-14T11:41:26.387Z,64.20
2018-04-14T11:43:53.940Z,64.20
2018-04-14T11:46:21.451Z,64.30
2018-04-14T11:48:48.943Z,64.20
2018-04-14T11:51:16.536Z,64.40
2018-04-14T11:53:44.104Z,64.40
2018-04-14T11:56:11.607Z,64.50
2018-04-14T11:58:39.103Z,64.50
2018-04-14T12:01:06.605Z,64.50
2018-04-14T12:03:34.169Z,64.50
2018-04-14T12:06:01.759Z,64.50
2018-04-14T12:08:30.037Z,64.60
2018-04-14T12:10:58.282Z,64.50
2018-04-14T12:13:25.865Z,64.60
2018-04-14T12:15:53.354Z,64.50
2018-04-14T12:18:21.622Z,64.40
2018-04-14T12:20:49.986Z,64.70
2018-04-14T12:23:17.554Z,64.40
2018-04-14T12:25:45.121Z,64.30
2018-04-14T12:28:12.683Z,64.50
2018-04-14T12:30:40.254Z,64.40
2018-04-14T12:33:07.744Z,64.50
2018-04-14T12:35:36.105Z,64.80
2018-04-14T12:38:03.660Z,64.80
2018-04-14T12:40:31.186Z,64.70
2018-04-14T12:42:58.679Z,64.60
2018-04-14T12:45:26.166Z,64.50
2018-04-14T12:47:53.676Z,64.70
2018-04-14T12:50:21.177Z,64.50
2018-04-14T12:52:48.696Z,64.80
2018-04-14T12:55:16.197Z,64.00
2018-04-14T12:57:43.687Z,63.60
2018-04-14T13:00:11.192Z,63.70
2018-04-14T13:02:38.692Z,63.70
2018-04-14T13:05:06.199Z,63.80
2018-04-14T13:07:34.470Z,63.40
2018-04-14T13:10:01.965Z,63.40
2018-04-14T13:12:29.468Z,63.40
2018-04-14T13:14:56.959Z,63.60
2018-04-14T13:17:24.454Z,63.60
2018-04-14T13:19:51.959Z,63.70
2018-04-14T13:22:19.454Z,63.80
2018-04-14T13:24:47.759Z,64.10
2018-04-14T13:27:16.099Z,64.10
2018-04-14T13:29:43.664Z,64.10
2018-04-14T13:32:11.158Z,63.90
2018-04-14T13:34:39.435Z,63.40
2018-04-14T13:37:07.798Z,63.50
2018-04-14T13:39:35.296Z,63.40
2018-04-14T13:42:03.657Z,62.20
2018-04-14T13:44:31.217Z,62.30
2018-04-14T13:46:58.706Z,62.70
2018-04-14T13:49:26.970Z,62.70
2018-04-14T13:51:54.468Z,62.70
2018-04-14T13:54:21.990Z,62.90
2018-04-14T13:56:49.474Z,63.80
2018-04-14T13:59:17.836Z,63.30
2018-04-14T14:01:45.329Z,63.30
2018-04-14T14:04:13.599Z,63.70
2018-04-14T14:06:42.026Z,63.70
2018-04-14T14:09:10.252Z,63.70
2018-04-14T14:11:37.749Z,63.70
2018-04-14T14:14:05.251Z,63.90
2018-04-14T14:16:32.753Z,64.20
2018-04-14T14:19:01.020Z,64.10
2018-04-14T14:21:28.523Z,64.20
2018-04-14T14:23:56.053Z,63.80
2018-04-14T14:26:23.546Z,64.70
2018-04-14T14:28:51.809Z,64.00
2018-04-14T14:31:19.332Z,64.00
2018-04-14T14:33:46.831Z,63.90
2018-04-14T14:36:14.330Z,63.40
2018-04-14T14:38:41.819Z,63.10
2018-04-14T14:41:09.319Z,62.90
2018-04-14T14:43:36.844Z,63.00
2018-04-14T14:46:04.341Z,63.00
2018-04-14T14:48:31.879Z,63.00
2018-04-14T14:50:59.365Z,62.80
2018-04-14T14:53:26.870Z,62.50
2018-04-14T14:55:55.151Z,62.50
2018-04-14T14:58:23.507Z,62.40
2018-04-14T15:00:50.990Z,62.40
2018-04-14T15:03:19.252Z,62.20
2018-04-14T15:05:46.767Z,62.10
2018-04-14T15:08:14.284Z,61.90
2018-04-14T15:10:41.794Z,61.70
2018-04-14T15:13:09.301Z,61.70
2018-04-14T15:15:36.832Z,61.80
2018-04-14T15:18:04.318Z,61.90
2018-04-14T15:20:31.848Z,61.90
2018-04-14T15:22:59.343Z,61.70
2018-04-14T15:25:27.919Z,61.50
2018-04-14T15:27:55.354Z,61.50
2018-04-14T15:30:22.860Z,61.40
2018-04-14T15:32:50.374Z,61.40
2018-04-14T15:35:18.742Z,61.40
2018-04-14T15:37:46.242Z,61.40
2018-04-14T15:40:14.566Z,61.50
2018-04-14T15:42:42.013Z,61.50
2018-04-14T15:45:09.536Z,61.40
2018-04-14T15:47:37.805Z,61.30
2018-04-14T15:50:06.083Z,61.30
2018-04-14T15:52:33.611Z,61.30
2018-04-14T15:55:01.085Z,61.30
2018-04-14T15:57:28.598Z,62.10
2018-04-14T15:59:56.143Z,61.30
2018-04-14T16:02:24.527Z,62.10
2018-04-14T16:04:52.026Z,61.30
2018-04-14T16:07:19.544Z,61.20
2018-04-14T16:09:47.077Z,61.20
2018-04-14T16:12:14.582Z,61.10
2018-04-14T16:14:42.094Z,61.90
2018-04-14T16:17:09.618Z,61.20
2018-04-14T16:19:37.124Z,61.60
2018-04-14T16:22:04.636Z,61.10
2018-04-14T16:24:32.141Z,61.10
2018-04-14T16:26:59.638Z,61.20
2018-04-14T16:29:27.237Z,61.20
2018-04-14T16:31:54.736Z,61.20
2018-04-14T16:34:22.271Z,61.20
2018-04-14T16:36:50.645Z,61.20
2018-04-14T16:39:18.206Z,61.20
2018-04-14T16:41:45.720Z,61.20
2018-04-14T16:44:13.214Z,61.30
2018-04-14T16:46:40.797Z,61.30
2018-04-14T16:49:08.307Z,61.30
2018-04-14T16:51:35.809Z,61.40
2018-04-14T16:54:03.410Z,61.40
2018-04-14T16:56:30.906Z,61.40
2018-04-14T16:58:58.434Z,61.30
2018-04-14T17:01:26.722Z,61.30
2018-04-14T17:03:55.005Z,61.30
2018-04-14T17:06:23.381Z,61.40
2018-04-14T17:08:50.935Z,61.30
2018-04-14T17:11:18.464Z,61.30
2018-04-14T17:13:45.957Z,61.40
2018-04-14T17:16:13.480Z,61.40
2018-04-14T17:18:40.977Z,61.50
2018-04-14T17:21:08.481Z,61.40
2018-04-14T17:23:36.872Z,61.40
2018-04-14T17:26:05.233Z,61.40
2018-04-14T17:28:33.601Z,62.10
2018-04-14T17:31:01.107Z,61.30
2018-04-14T17:33:29.531Z,61.50
2018-04-14T17:35:57.039Z,61.50
2018-04-14T17:38:25.317Z,62.40
2018-04-14T17:40:52.818Z,61.60
2018-04-14T17:43:20.318Z,61.60
2018-04-14T17:45:47.801Z,61.70
2018-04-14T17:48:15.338Z,61.70
2018-04-14T17:50:42.841Z,61.70
2018-04-14T17:53:10.359Z,61.60
2018-04-14T17:55:37.862Z,61.60
2018-04-14T17:58:05.432Z,62.20
2018-04-14T18:00:32.955Z,61.80
2018-04-14T18:03:00.462Z,61.90
2018-04-14T18:05:27.971Z,61.90
2018-04-14T18:07:55.491Z,61.90
2018-04-14T18:10:22.998Z,62.00
2018-04-14T18:12:50.527Z,62.00
2018-04-14T18:15:18.016Z,62.10
2018-04-14T18:17:45.552Z,62.40
2018-04-14T18:20:13.076Z,62.50
2018-04-14T18:22:40.569Z,62.90
2018-04-14T18:25:08.111Z,62.70
2018-04-14T18:27:35.625Z,62.70
2018-04-14T18:30:03.996Z,62.60
2018-04-14T18:32:31.502Z,62.60
2018-04-14T18:34:59.023Z,62.60
2018-04-14T18:37:26.594Z,62.60
2018-04-14T18:39:54.860Z,62.70
2018-04-14T18:42:23.127Z,62.80
2018-04-14T18:44:50.638Z,62.80
2018-04-14T18:47:18.998Z,63.20
2018-04-14T18:49:46.519Z,63.30
2018-04-14T18:52:14.939Z,63.50
2018-04-14T18:54:42.518Z,63.70
2018-04-14T18:57:10.063Z,64.00
2018-04-14T18:59:37.571Z,64.10
2018-04-14T19:02:05.852Z,64.60
2018-04-14T19:04:34.138Z,64.70
2018-04-14T19:07:02.474Z,64.60
2018-04-14T19:09:30.058Z,64.60
2018-04-14T19:11:57.571Z,64.60
2018-04-14T19:14:25.096Z,64.80
2018-04-14T19:16:53.422Z,65.10
2018-04-14T19:19:20.925Z,65.00
2018-04-14T19:21:48.441Z,65.40
2018-04-14T19:24:15.933Z,65.60
2018-04-14T19:26:43.466Z,65.60
2018-04-14T19:29:10.990Z,65.80
2018-04-14T19:31:38.497Z,66.00
2018-04-14T19:34:06.004Z,66.20
2018-04-14T19:36:33.588Z,66.40
2018-04-14T19:39:01.166Z,66.40
2018-04-14T19:41:29.442Z,66.20
2018-04-14T19:43:56.965Z,66.20
2018-04-14T19:46:24.558Z,66.10
2018-04-14T19:48:52.107Z,66.00
2018-04-14T19:51:19.616Z,66.20
2018-04-14T19:53:47.871Z,66.00
2018-04-14T19:56:15.385Z,65.90
2018-04-14T19:58:42.898Z,65.50
2018-04-14T20:01:10.402Z,65.30
2018-04-14T20:03:38.765Z,65.40
2018-04-14T20:06:07.142Z,65.50
2018-04-14T20:08:34.724Z,65.40
2018-04-14T20:11:02.983Z,65.70
2018-04-14T20:13:30.524Z,65.70
2018-04-14T20:15:58.040Z,65.70
2018-04-14T20:18:26.409Z,66.00
2018-04-14T20:20:53.922Z,66.10
2018-04-14T20:23:21.539Z,66.20
2018-04-14T20:25:49.069Z,66.90
2018-04-14T20:28:16.590Z,66.60
2018-04-14T20:30:44.942Z,67.70
2018-04-14T20:33:12.513Z,67.00
2018-04-14T20:35:40.799Z,66.90
2018-04-14T20:38:08.299Z,66.80
2018-04-14T20:40:35.820Z,66.70
2018-04-14T20:43:03.418Z,66.70
2018-04-14T20:45:31.763Z,66.70
2018-04-14T20:47:59.343Z,66.70
2018-04-14T20:50:26.914Z,66.60
2018-04-14T20:52:54.494Z,66.50
2018-04-14T20:55:22.781Z,66.60
2018-04-14T20:57:50.282Z,66.60
2018-04-14T21:00:17.887Z,66.60
2018-04-14T21:02:45.408Z,66.60
2018-04-14T21:05:13.032Z,66.60
2018-04-14T21:07:41.338Z,66.60
2018-04-14T21:10:08.821Z,66.70
2018-04-14T21:12:36.434Z,66.60
2018-04-14T21:15:03.948Z,66.70
2018-04-14T21:17:31.552Z,66.70
2018-04-14T21:19:59.121Z,66.80
2018-04-14T21:22:26.632Z,66.90
2018-04-14T21:24:54.151Z,66.90
2018-04-14T21:27:22.431Z,67.20
2018-04-14T21:29:49.996Z,67.20
2018-04-14T21:32:17.559Z,67.90
2018-04-14T21:34:45.076Z,67.10
2018-04-14T21:37:12.590Z,67.20
2018-04-14T21:39:40.155Z,67.10
2018-04-14T21:42:07.740Z,67.10
2018-04-14T21:44:35.994Z,67.10
2018-04-14T21:47:03.500Z,67.10
2018-04-14T21:49:31.855Z,67.00
2018-04-14T21:51:59.415Z,67.00
2018-04-14T21:54:26.997Z,67.00
2018-04-14T21:56:54.562Z,67.00
2018-04-14T21:59:22.131Z,67.00
2018-04-14T22:01:49.628Z,67.00
2018-04-14T22:04:17.146Z,67.00
2018-04-14T22:06:44.650Z,67.10
2018-04-14T22:09:12.141Z,67.00
2018-04-14T22:11:39.657Z,66.90
2018-04-14T22:14:07.920Z,67.00
2018-04-14T22:16:35.482Z,67.00
2018-04-14T22:19:02.992Z,66.90
2018-04-14T22:21:30.482Z,66.90
2018-04-14T22:23:58.071Z,66.90
2018-04-14T22:26:25.585Z,67.00
2018-04-14T22:28:53.077Z,66.90
2018-04-14T22:31:20.578Z,66.90
2018-04-14T22:33:48.081Z,66.90
2018-04-14T22:36:15.574Z,66.80
2018-04-14T22:38:43.070Z,66.80
2018-04-14T22:41:10.579Z,66.90
2018-04-14T22:43:38.199Z,66.90
2018-04-14T22:46:05.767Z,66.90
2018-04-14T22:48:33.257Z,67.00
2018-04-14T22:51:01.618Z,67.00
2018-04-14T22:53:29.179Z,67.00
2018-04-14T22:55:56.751Z,67.00
2018-04-14T22:58:24.255Z,67.00
2018-04-14T23:00:51.767Z,67.00
2018-04-14T23:03:19.253Z,67.00
2018-04-14T23:05:47.518Z,67.00
2018-04-14T23:08:15.026Z,66.90
2018-04-14T23:10:42.519Z,67.00
2018-04-14T23:13:10.116Z,66.90
2018-04-14T23:15:37.669Z,67.00
2018-04-14T23:18:05.157Z,67.10
2018-04-14T23:20:33.441Z,67.20
2018-04-14T23:23:00.983Z,67.20
2018-04-14T23:25:28.500Z,67.10
2018-04-14T23:27:56.769Z,67.00
2018-04-14T23:30:24.266Z,67.10
2018-04-14T23:32:51.761Z,67.10
2018-04-14T23:35:19.261Z,67.20
2018-04-14T23:37:46.778Z,67.10
2018-04-14T23:40:14.272Z,67.20
2018-04-14T23:42:42.633Z,67.20
2018-04-14T23:45:10.135Z,67.20
2018-04-14T23:47:37.626Z,67.10
2018-04-14T23:50:05.121Z,67.00
2018-04-14T23:52:32.619Z,66.90
2018-04-14T23:55:00.880Z,66.70
2018-04-14T23:57:28.400Z,66.80
2018-04-14T23:59:55.901Z,66.60
